Time;durP1;ratioP1;P1;durP2;ratioP2;P2;SDS_P1;SDS_P2;PMS_P1;PMS_P2;Temp;Humidity;BMP_temperature;BMP_pressure;BME280_temperature;BME280_humidity;BME280_pressure;Samples;Min_cycle;Max_cycle;Signal;HPM_P1;HPM_P2
2021/12/30 00:02:24;;;;;;;123.03;58.23;;;;;;;;;;5008452;28;21272;-79
2021/12/30 00:04:50;;;;;;;99.07;47.63;;;;;;;;;;5008900;28;20617;-79
2021/12/30 00:07:16;;;;;;;86.70;48.73;;;;;;;;;;5024943;28;20437;-79
2021/12/30 00:09:42;;;;;;;80.97;45.23;;;;;;;;;;5023871;28;21246;-79
2021/12/30 00:12:09;;;;;;;112.40;55.70;;;;;;;;;;5026302;28;20458;-79
2021/12/30 00:14:35;;;;;;;137.43;59.13;;;;;;;;;;5024830;28;21180;-79
2021/12/30 00:17:01;;;;;;;90.70;48.80;;;;;;;;;;5025306;28;20530;-79
2021/12/30 00:19:27;;;;;;;147.33;62.00;;;;;;;;;;5023245;28;21271;-79
2021/12/30 00:21:53;;;;;;;95.53;51.80;;;;;;;;;;5026843;28;20438;-79
2021/12/30 00:24:19;;;;;;;153.13;64.03;;;;;;;;;;5026621;28;20418;-79
2021/12/30 00:26:45;;;;;;;193.63;69.53;;;;;;;;;;5026176;28;20429;-79
2021/12/30 00:29:11;;;;;;;198.43;67.17;;;;;;;;;;5027095;28;20454;-79
2021/12/30 00:31:37;;;;;;;184.27;68.10;;;;;;;;;;5025835;28;21443;-80
2021/12/30 00:34:03;;;;;;;174.77;66.50;;;;;;;;;;5011082;28;20423;-79
2021/12/30 00:36:29;;;;;;;94.50;50.40;;;;;;;;;;5026550;28;21188;-79
2021/12/30 00:38:55;;;;;;;193.30;68.57;;;;;;;;;;5009870;28;20415;-79
2021/12/30 00:41:22;;;;;;;101.90;53.90;;;;;;;;;;5010836;28;20781;-79
2021/12/30 00:43:48;;;;;;;102.00;52.77;;;;;;;;;;5009976;28;20426;-79
2021/12/30 00:46:14;;;;;;;101.60;53.37;;;;;;;;;;5008630;28;20423;-79
2021/12/30 00:48:41;;;;;;;103.60;53.10;;;;;;;;;;5025831;28;20493;-79
2021/12/30 00:51:08;;;;;;;151.57;63.67;;;;;;;;;;5026658;28;20513;-79
2021/12/30 00:53:34;;;;;;;131.53;59.03;;;;;;;;;;5008339;28;21284;-79
2021/12/30 00:56:00;;;;;;;139.43;61.47;;;;;;;;;;5010905;28;20465;-79
2021/12/30 00:58:26;;;;;;;98.57;53.57;;;;;;;;;;5027184;28;20528;-79
2021/12/30 01:00:54;;;;;;;107.00;54.23;;;;;;;;;;5012726;28;20573;-79
2021/12/30 01:03:20;;;;;;;179.20;69.53;;;;;;;;;;5026387;28;20525;-79
2021/12/30 01:05:47;;;;;;;112.80;56.93;;;;;;;;;;5013529;28;20628;-79
2021/12/30 01:08:13;;;;;;;164.27;61.60;;;;;;;;;;5027859;28;20431;-79
2021/12/30 01:10:39;;;;;;;207.07;68.57;;;;;;;;;;5032383;28;21325;-79
2021/12/30 01:13:08;;;;;;;171.87;62.33;;;;;;;;;;5015193;28;20498;-79
2021/12/30 01:20:53;;;;;;;236.63;77.47;;;;;;;;;;5032041;28;20529;-79
2021/12/30 01:23:19;;;;;;;121.93;57.33;;;;;;;;;;5017896;28;20434;-79
2021/12/30 01:25:46;;;;;;;121.13;56.13;;;;;;;;;;5019639;28;20427;-79
2021/12/30 01:28:12;;;;;;;138.87;60.60;;;;;;;;;;5032563;28;20461;-79
2021/12/30 01:30:38;;;;;;;249.20;76.83;;;;;;;;;;5032077;28;20484;-79
2021/12/30 01:33:04;;;;;;;175.20;67.27;;;;;;;;;;5014878;28;21265;-79
2021/12/30 01:35:30;;;;;;;184.87;64.27;;;;;;;;;;5017412;28;20424;-79
2021/12/30 01:38:00;;;;;;;119.37;56.67;;;;;;;;;;5016678;28;21342;-79
2021/12/30 01:40:26;;;;;;;108.87;54.10;;;;;;;;;;5032968;28;20434;-79
2021/12/30 01:42:52;;;;;;;101.30;51.37;;;;;;;;;;5031976;28;20433;-79
2021/12/30 01:45:18;;;;;;;129.33;55.87;;;;;;;;;;5015550;28;21345;-79
2021/12/30 01:47:53;;;;;;;168.83;66.63;;;;;;;;;;5032444;28;20429;-79
2021/12/30 01:50:20;;;;;;;131.93;57.57;;;;;;;;;;5013474;28;20473;-79
2021/12/30 01:52:46;;;;;;;147.47;61.70;;;;;;;;;;5017624;28;20418;-79
2021/12/30 01:55:13;;;;;;;148.57;62.83;;;;;;;;;;5031336;28;20410;-79
2021/12/30 01:57:40;;;;;;;185.13;70.23;;;;;;;;;;5029315;28;20465;-79
2021/12/30 02:00:08;;;;;;;186.20;66.87;;;;;;;;;;5012646;28;20430;-79
2021/12/30 02:02:34;;;;;;;135.17;60.43;;;;;;;;;;5032691;28;20473;-79
2021/12/30 02:05:00;;;;;;;138.23;63.53;;;;;;;;;;5015448;28;20465;-79
2021/12/30 02:07:26;;;;;;;213.47;69.77;;;;;;;;;;5030070;28;20426;-79
2021/12/30 02:10:00;;;;;;;152.90;64.67;;;;;;;;;;5012954;28;21155;-79
2021/12/30 02:12:26;;;;;;;233.27;72.37;;;;;;;;;;5032893;28;21299;-80
2021/12/30 02:14:52;;;;;;;241.30;76.70;;;;;;;;;;5016392;28;20418;-79
2021/12/30 02:17:18;;;;;;;170.60;65.83;;;;;;;;;;5031851;28;21079;-79
2021/12/30 02:19:45;;;;;;;245.80;76.03;;;;;;;;;;5031304;28;20422;-79
2021/12/30 02:22:11;;;;;;;89.10;47.93;;;;;;;;;;5013733;28;20435;-79
2021/12/30 02:24:44;;;;;;;166.13;64.67;;;;;;;;;;5015677;28;20448;-79
2021/12/30 02:27:10;;;;;;;208.50;67.93;;;;;;;;;;5014286;28;20438;-79
2021/12/30 02:29:36;;;;;;;149.23;59.00;;;;;;;;;;5031650;28;20535;-79
2021/12/30 02:32:02;;;;;;;99.40;51.70;;;;;;;;;;5032720;28;21027;-79
2021/12/30 02:34:29;;;;;;;104.80;53.20;;;;;;;;;;5032251;28;20426;-79
2021/12/30 02:36:55;;;;;;;99.47;52.23;;;;;;;;;;5028086;28;21037;-79
2021/12/30 02:39:23;;;;;;;88.93;48.60;;;;;;;;;;5032606;28;20418;-79
2021/12/30 02:41:49;;;;;;;122.13;57.67;;;;;;;;;;5014065;28;20472;-79
2021/12/30 02:44:15;;;;;;;119.17;52.00;;;;;;;;;;5012773;28;20499;-79
2021/12/30 02:46:41;;;;;;;99.37;52.03;;;;;;;;;;5030001;28;20430;-79
2021/12/30 02:49:08;;;;;;;132.53;55.20;;;;;;;;;;5013281;28;21727;-79
2021/12/30 02:51:34;;;;;;;101.93;53.80;;;;;;;;;;5031478;28;20432;-79
2021/12/30 02:54:00;;;;;;;171.80;61.70;;;;;;;;;;5027713;28;21283;-79
2021/12/30 02:56:27;;;;;;;159.83;61.47;;;;;;;;;;5015291;28;20541;-79
2021/12/30 02:58:53;;;;;;;115.47;54.47;;;;;;;;;;5032025;28;20422;-79
2021/12/30 03:01:22;;;;;;;202.70;70.33;;;;;;;;;;5012532;28;20430;-79
2021/12/30 03:03:48;;;;;;;109.67;54.63;;;;;;;;;;5013100;28;20546;-79
2021/12/30 03:06:15;;;;;;;133.97;61.57;;;;;;;;;;5032691;28;21251;-80
2021/12/30 03:08:42;;;;;;;152.63;62.80;;;;;;;;;;5013085;28;20496;-79
2021/12/30 03:11:08;;;;;;;199.57;69.17;;;;;;;;;;5013724;28;20415;-79
2021/12/30 03:13:36;;;;;;;130.20;57.77;;;;;;;;;;5030438;28;21184;-79
2021/12/30 03:16:06;;;;;;;170.37;66.03;;;;;;;;;;5014061;28;20427;-79
2021/12/30 03:18:33;;;;;;;98.23;49.30;;;;;;;;;;5030879;28;20425;-79
2021/12/30 03:21:00;;;;;;;97.10;47.13;;;;;;;;;;5031856;28;20454;-79
2021/12/30 03:23:26;;;;;;;104.37;52.77;;;;;;;;;;5013898;28;20434;-79
2021/12/30 03:25:52;;;;;;;91.37;49.60;;;;;;;;;;5010469;28;21068;-79
2021/12/30 03:28:18;;;;;;;105.90;53.33;;;;;;;;;;5027641;28;20427;-79
2021/12/30 03:30:44;;;;;;;114.77;55.77;;;;;;;;;;5014280;28;20529;-79
2021/12/30 03:33:10;;;;;;;173.07;59.63;;;;;;;;;;5013902;28;20423;-79
2021/12/30 03:35:37;;;;;;;101.67;51.53;;;;;;;;;;5029125;28;20461;-79
2021/12/30 03:38:03;;;;;;;107.63;52.30;;;;;;;;;;5027419;28;21212;-79
2021/12/30 03:40:29;;;;;;;114.43;55.47;;;;;;;;;;5028935;28;20525;-79
2021/12/30 03:42:55;;;;;;;122.17;57.20;;;;;;;;;;5012324;28;20430;-79
2021/12/30 03:45:22;;;;;;;124.63;57.43;;;;;;;;;;5029840;28;20434;-79
2021/12/30 03:47:49;;;;;;;116.13;54.90;;;;;;;;;;5029556;28;21295;-79
2021/12/30 03:50:21;;;;;;;130.30;57.00;;;;;;;;;;5028964;28;21156;-79
2021/12/30 03:52:49;;;;;;;87.70;46.50;;;;;;;;;;5030755;28;20431;-79
2021/12/30 03:55:16;;;;;;;98.33;48.37;;;;;;;;;;5013620;28;21088;-79
2021/12/30 03:57:43;;;;;;;139.27;58.07;;;;;;;;;;5013229;28;20434;-79
2021/12/30 04:00:09;;;;;;;222.00;67.27;;;;;;;;;;5028692;28;20446;-79
2021/12/30 04:02:35;;;;;;;142.33;60.03;;;;;;;;;;5030451;28;20492;-79
2021/12/30 04:05:01;;;;;;;97.10;51.77;;;;;;;;;;5012066;28;20441;-79
2021/12/30 04:07:27;;;;;;;105.43;53.13;;;;;;;;;;5010563;28;21127;-79
2021/12/30 04:09:54;;;;;;;116.57;55.10;;;;;;;;;;5012450;28;20580;-80
2021/12/30 04:12:20;;;;;;;128.70;57.27;;;;;;;;;;5012247;28;20509;-79
2021/12/30 04:14:46;;;;;;;149.60;59.77;;;;;;;;;;5013586;28;21079;-79
2021/12/30 04:17:12;;;;;;;165.57;62.13;;;;;;;;;;5011907;28;20538;-80
2021/12/30 04:19:44;;;;;;;169.07;64.93;;;;;;;;;;5011224;28;20465;-80
2021/12/30 04:22:14;;;;;;;176.90;65.00;;;;;;;;;;5013655;28;20454;-79
2021/12/30 04:24:40;;;;;;;122.30;55.50;;;;;;;;;;5030240;28;20442;-79
2021/12/30 04:27:06;;;;;;;98.37;51.97;;;;;;;;;;5029752;28;20410;-80
2021/12/30 04:29:32;;;;;;;84.33;47.20;;;;;;;;;;5026003;28;20457;-80
2021/12/30 04:31:59;;;;;;;89.93;47.80;;;;;;;;;;5012909;28;20472;-80
2021/12/30 04:34:25;;;;;;;87.40;48.23;;;;;;;;;;5027805;28;20418;-80
2021/12/30 04:36:53;;;;;;;94.77;49.93;;;;;;;;;;5031634;28;21248;-80
2021/12/30 04:39:19;;;;;;;87.77;47.53;;;;;;;;;;5012622;28;20430;-80
2021/12/30 04:41:45;;;;;;;90.70;46.30;;;;;;;;;;5028166;28;21254;-80
2021/12/30 04:44:49;;;;;;;;;;;;;;;;;;;;;
2021/12/30 04:48:04;;;;;;;;;;;;;;;;;;;;;
2021/12/30 04:59:55;;;;;;;151.03;58.80;;;;;;;;;;5029138;28;20390;-80
2021/12/30 05:02:25;;;;;;;95.47;47.33;;;;;;;;;;5027844;28;20421;-80
2021/12/30 05:04:51;;;;;;;101.47;51.43;;;;;;;;;;5028769;28;20470;-79
2021/12/30 05:07:17;;;;;;;136.13;54.03;;;;;;;;;;5012303;28;20529;-80
2021/12/30 05:09:43;;;;;;;161.03;58.20;;;;;;;;;;5012318;28;20560;-80
2021/12/30 05:12:09;;;;;;;177.10;61.50;;;;;;;;;;5026843;28;21329;-80
2021/12/30 05:14:35;;;;;;;135.97;55.47;;;;;;;;;;5013187;28;20452;-80
2021/12/30 05:17:03;;;;;;;186.70;64.23;;;;;;;;;;5011691;28;21154;-80
2021/12/30 05:19:30;;;;;;;108.13;52.43;;;;;;;;;;5011991;28;20411;-80
2021/12/30 05:22:08;;;;;;;111.70;52.60;;;;;;;;;;5028288;28;20496;-79
2021/12/30 05:24:37;;;;;;;79.07;43.00;;;;;;;;;;5013168;28;20434;-80
2021/12/30 05:27:03;;;;;;;254.43;65.93;;;;;;;;;;5014504;28;20475;-80
2021/12/30 05:32:54;;;;;;;102.60;49.00;;;;;;;;;;4996028;28;20427;-80
2021/12/30 05:35:20;;;;;;;137.77;52.87;;;;;;;;;;5013337;28;20441;-79
2021/12/30 05:38:01;;;;;;;172.10;53.90;;;;;;;;;;5012521;28;21613;-79
2021/12/30 05:40:34;;;;;;;77.93;43.50;;;;;;;;;;5029008;28;21346;-79
2021/12/30 05:43:19;;;;;;;61.40;37.60;;;;;;;;;;5027380;28;20431;-79
2021/12/30 05:45:45;;;;;;;98.97;48.73;;;;;;;;;;5029480;28;20422;-80
2021/12/30 05:48:11;;;;;;;151.70;53.83;;;;;;;;;;5013103;28;20431;-79
2021/12/30 05:50:37;;;;;;;84.67;45.40;;;;;;;;;;5011555;28;20496;-79
2021/12/30 05:53:04;;;;;;;182.37;55.70;;;;;;;;;;5031871;28;20454;-79
2021/12/30 05:55:30;;;;;;;138.50;52.43;;;;;;;;;;5016160;28;20414;-80
2021/12/30 05:57:57;;;;;;;113.60;51.77;;;;;;;;;;5032740;28;20430;-80
2021/12/30 06:00:25;;;;;;;88.33;47.27;;;;;;;;;;5030416;28;20422;-80
2021/12/30 06:02:51;;;;;;;117.97;51.03;;;;;;;;;;5033894;28;20429;-80
2021/12/30 06:05:17;;;;;;;110.53;50.03;;;;;;;;;;5032306;28;20453;-79
2021/12/30 06:07:44;;;;;;;101.57;46.33;;;;;;;;;;5017137;28;20842;-80
2021/12/30 06:10:10;;;;;;;79.70;40.53;;;;;;;;;;5034598;28;20787;-80
2021/12/30 06:12:37;;;;;;;161.13;51.20;;;;;;;;;;5017802;28;20423;-79
2021/12/30 06:15:03;;;;;;;167.13;52.33;;;;;;;;;;5016873;28;20430;-80
2021/12/30 06:17:29;;;;;;;95.97;43.60;;;;;;;;;;5030875;28;20509;-80
2021/12/30 06:19:55;;;;;;;71.97;40.43;;;;;;;;;;5015288;28;21056;-80
2021/12/30 06:22:21;;;;;;;104.57;46.23;;;;;;;;;;5033811;28;20461;-80
2021/12/30 06:24:47;;;;;;;54.80;35.30;;;;;;;;;;5012790;28;21540;-80
2021/12/30 06:27:13;;;;;;;58.43;34.13;;;;;;;;;;5019616;28;20419;-80
2021/12/30 06:29:40;;;;;;;65.60;36.87;;;;;;;;;;5013678;28;20458;-80
2021/12/30 06:32:06;;;;;;;168.80;52.53;;;;;;;;;;5032386;28;20442;-80
2021/12/30 06:34:33;;;;;;;105.23;43.67;;;;;;;;;;5016775;28;20505;-79
2021/12/30 06:36:59;;;;;;;91.50;45.40;;;;;;;;;;5030743;28;20435;-80
2021/12/30 06:39:25;;;;;;;87.17;39.33;;;;;;;;;;5028566;28;20473;-80
2021/12/30 06:41:51;;;;;;;129.80;44.80;;;;;;;;;;5017273;28;21392;-79
2021/12/30 06:44:17;;;;;;;88.37;45.13;;;;;;;;;;5015524;28;21350;-79
2021/12/30 06:46:52;;;;;;;115.67;45.77;;;;;;;;;;5012297;28;20586;-79
2021/12/30 06:49:18;;;;;;;103.10;46.33;;;;;;;;;;5015995;28;20454;-80
2021/12/30 06:51:44;;;;;;;97.43;44.07;;;;;;;;;;5012467;28;21152;-80
2021/12/30 06:54:10;;;;;;;66.87;39.57;;;;;;;;;;5014412;28;20510;-80
2021/12/30 06:56:36;;;;;;;72.60;37.47;;;;;;;;;;5012762;28;20528;-81
2021/12/30 06:59:03;;;;;;;120.27;46.33;;;;;;;;;;5030748;28;20438;-80
2021/12/30 07:01:30;;;;;;;58.80;35.87;;;;;;;;;;5011683;28;20426;-80
2021/12/30 07:03:56;;;;;;;152.50;48.57;;;;;;;;;;5029502;28;20774;-80
2021/12/30 07:06:22;;;;;;;66.33;39.27;;;;;;;;;;5030058;28;20434;-80
2021/12/30 07:08:48;;;;;;;78.80;43.33;;;;;;;;;;5031388;28;20437;-79
2021/12/30 07:11:14;;;;;;;67.87;40.17;;;;;;;;;;5013313;28;21187;-80
2021/12/30 07:13:41;;;;;;;84.93;42.30;;;;;;;;;;5013487;28;20414;-80
2021/12/30 07:16:07;;;;;;;80.00;43.10;;;;;;;;;;5013687;28;20430;-80
2021/12/30 07:18:33;;;;;;;65.00;35.47;;;;;;;;;;5015337;28;20434;-80
2021/12/30 07:20:59;;;;;;;72.87;38.23;;;;;;;;;;5013337;28;20468;-81
2021/12/30 07:23:26;;;;;;;68.57;36.80;;;;;;;;;;5030574;28;20439;-81
2021/12/30 07:25:52;;;;;;;66.20;38.33;;;;;;;;;;5014670;28;20461;-80
2021/12/30 07:28:18;;;;;;;52.00;32.43;;;;;;;;;;5028677;28;20514;-80
2021/12/30 07:30:45;;;;;;;95.37;44.57;;;;;;;;;;5010472;28;20531;-81
2021/12/30 07:33:11;;;;;;;84.33;43.87;;;;;;;;;;5012481;28;20423;-81
2021/12/30 07:35:37;;;;;;;70.27;38.27;;;;;;;;;;5011441;28;20640;-81
2021/12/30 07:38:04;;;;;;;72.93;37.13;;;;;;;;;;5012082;28;20424;-81
2021/12/30 07:40:30;;;;;;;104.13;47.97;;;;;;;;;;5012523;28;20504;-81
2021/12/30 07:42:56;;;;;;;65.40;36.70;;;;;;;;;;5023601;28;20469;-81
2021/12/30 07:45:22;;;;;;;70.27;39.77;;;;;;;;;;5014065;28;21118;-81
2021/12/30 07:47:50;;;;;;;55.47;33.60;;;;;;;;;;5016773;28;20461;-80
2021/12/30 07:50:17;;;;;;;59.37;36.57;;;;;;;;;;5029298;28;20537;-80
2021/12/30 07:52:43;;;;;;;73.97;38.73;;;;;;;;;;5032139;28;21261;-81
2021/12/30 07:55:10;;;;;;;65.77;33.27;;;;;;;;;;5013752;28;20431;-81
2021/12/30 07:57:36;;;;;;;80.20;39.50;;;;;;;;;;5013369;28;21298;-81
2021/12/30 08:00:05;;;;;;;49.50;30.83;;;;;;;;;;5014587;28;21337;-81
2021/12/30 08:02:31;;;;;;;80.23;38.83;;;;;;;;;;5009903;28;20454;-81
2021/12/30 08:04:57;;;;;;;45.53;29.03;;;;;;;;;;5014688;28;20461;-81
2021/12/30 08:07:24;;;;;;;67.30;37.73;;;;;;;;;;5029066;28;21178;-81
2021/12/30 08:09:50;;;;;;;75.23;35.70;;;;;;;;;;5026758;28;20487;-81
2021/12/30 08:12:19;;;;;;;57.37;32.17;;;;;;;;;;5016782;28;20560;-81
2021/12/30 08:14:45;;;;;;;63.73;35.30;;;;;;;;;;5027870;28;20423;-81
2021/12/30 08:17:11;;;;;;;48.67;32.50;;;;;;;;;;5011517;28;21080;-81
2021/12/30 08:19:37;;;;;;;41.37;29.03;;;;;;;;;;5028664;28;20479;-81
2021/12/30 08:22:03;;;;;;;59.43;33.70;;;;;;;;;;5013581;28;20423;-81
2021/12/30 08:24:54;;;;;;;54.23;33.37;;;;;;;;;;5029737;28;21369;-81
2021/12/30 08:27:20;;;;;;;49.30;29.63;;;;;;;;;;5013215;28;20496;-81
2021/12/30 08:29:46;;;;;;;101.00;38.53;;;;;;;;;;5027430;28;20470;-81
2021/12/30 08:32:13;;;;;;;59.90;34.83;;;;;;;;;;5012266;28;21130;-81
2021/12/30 08:34:42;;;;;;;62.10;37.77;;;;;;;;;;5011490;28;20480;-81
2021/12/30 08:37:08;;;;;;;100.07;41.53;;;;;;;;;;5011723;28;20450;-81
2021/12/30 08:39:36;;;;;;;65.77;36.47;;;;;;;;;;5025935;28;20508;-81
2021/12/30 08:42:03;;;;;;;92.77;39.77;;;;;;;;;;5034928;28;20476;-81
2021/12/30 08:44:29;;;;;;;57.00;33.63;;;;;;;;;;5013412;28;20430;-81
2021/12/30 08:46:55;;;;;;;56.90;33.30;;;;;;;;;;5027564;28;20484;-81
2021/12/30 08:49:22;;;;;;;69.90;34.50;;;;;;;;;;5009793;28;20446;-82
2021/12/30 08:51:49;;;;;;;93.67;40.67;;;;;;;;;;5028160;28;20422;-81
2021/12/30 08:54:15;;;;;;;76.40;40.57;;;;;;;;;;5026976;28;20461;-81
2021/12/30 08:56:41;;;;;;;96.57;43.60;;;;;;;;;;5009928;28;20419;-81
2021/12/30 08:59:07;;;;;;;98.47;42.80;;;;;;;;;;5026567;28;20426;-81
2021/12/30 09:01:33;;;;;;;105.27;45.20;;;;;;;;;;5020637;28;20462;-81
2021/12/30 09:03:59;;;;;;;105.83;44.10;;;;;;;;;;5027228;28;20533;-80
2021/12/30 09:06:25;;;;;;;121.03;47.77;;;;;;;;;;5023974;28;20421;-81
2021/12/30 09:08:51;;;;;;;111.33;46.40;;;;;;;;;;5013626;28;20414;-81
2021/12/30 09:11:19;;;;;;;129.07;49.23;;;;;;;;;;5025086;28;20592;-81
2021/12/30 09:13:45;;;;;;;73.10;38.33;;;;;;;;;;5015888;28;20469;-81
2021/12/30 09:16:11;;;;;;;64.30;35.03;;;;;;;;;;5026914;28;20430;-82
2021/12/30 09:18:37;;;;;;;68.37;35.70;;;;;;;;;;5008996;28;20489;-81
2021/12/30 09:21:03;;;;;;;75.37;37.33;;;;;;;;;;5028549;28;20470;-81
2021/12/30 09:23:29;;;;;;;82.90;40.07;;;;;;;;;;5026611;28;20426;-81
2021/12/30 09:25:56;;;;;;;138.67;47.07;;;;;;;;;;5026801;28;20492;-81
2021/12/30 09:28:24;;;;;;;140.33;48.97;;;;;;;;;;5016009;28;20430;-81
2021/12/30 09:30:50;;;;;;;193.67;56.87;;;;;;;;;;5030514;28;20485;-81
2021/12/30 09:33:17;;;;;;;101.80;45.70;;;;;;;;;;5013528;28;20438;-81
2021/12/30 09:35:44;;;;;;;128.80;51.70;;;;;;;;;;5025443;28;20501;-81
2021/12/30 09:38:11;;;;;;;93.57;44.33;;;;;;;;;;5030455;28;20635;-81
2021/12/30 09:44:16;;;;;;;120.13;48.23;;;;;;;;;;5032265;28;20472;-81
2021/12/30 09:47:02;;;;;;;100.87;41.60;;;;;;;;;;4964430;28;20472;-81
2021/12/30 09:49:29;;;;;;;99.23;42.60;;;;;;;;;;4973563;28;20457;-80
2021/12/30 09:51:55;;;;;;;100.53;44.67;;;;;;;;;;5031408;28;20548;-80
2021/12/30 09:54:21;;;;;;;101.03;45.87;;;;;;;;;;5012488;28;21053;-80
2021/12/30 09:56:48;;;;;;;103.23;46.40;;;;;;;;;;5031435;28;20433;-81
2021/12/30 09:59:14;;;;;;;98.63;44.93;;;;;;;;;;5016815;28;20585;-81
2021/12/30 10:01:41;;;;;;;96.97;45.23;;;;;;;;;;5015700;28;20423;-81
2021/12/30 10:04:09;;;;;;;96.70;42.83;;;;;;;;;;5031624;28;20464;-82
2021/12/30 10:06:40;;;;;;;106.20;45.20;;;;;;;;;;5008266;28;20438;-82
2021/12/30 10:09:12;;;;;;;116.03;46.80;;;;;;;;;;5031068;28;21104;-82
2021/12/30 10:11:48;;;;;;;118.47;51.57;;;;;;;;;;5029421;28;21080;-80
2021/12/30 10:14:25;;;;;;;96.30;43.70;;;;;;;;;;5011759;28;20446;-82
2021/12/30 10:16:51;;;;;;;90.43;45.00;;;;;;;;;;5026042;28;21338;-83
2021/12/30 10:19:37;;;;;;;116.73;48.90;;;;;;;;;;5034042;28;20457;-83
2021/12/30 10:22:11;;;;;;;104.43;46.63;;;;;;;;;;5016984;28;20436;-82
2021/12/30 10:24:37;;;;;;;80.43;41.23;;;;;;;;;;5016389;28;20438;-82
2021/12/30 10:27:03;;;;;;;94.17;44.93;;;;;;;;;;5014377;28;20525;-83
2021/12/30 10:29:39;;;;;;;75.10;38.37;;;;;;;;;;5013117;28;20485;-82
2021/12/30 10:32:38;;;;;;;59.17;32.03;;;;;;;;;;5016813;28;21367;-82
2021/12/30 10:35:15;;;;;;;56.90;31.60;;;;;;;;;;4996248;28;20441;-82
2021/12/30 10:37:45;;;;;;;50.53;31.27;;;;;;;;;;5015011;28;20499;-82
2021/12/30 10:40:36;;;;;;;60.13;35.30;;;;;;;;;;5032211;28;21245;-81
2021/12/30 10:46:09;;;;;;;62.37;35.40;;;;;;;;;;5030020;28;20512;-82
2021/12/30 10:48:44;;;;;;;52.50;31.13;;;;;;;;;;5032525;28;21214;-81
2021/12/30 10:51:15;;;;;;;51.67;31.27;;;;;;;;;;5034426;28;20440;-82
2021/12/30 10:53:42;;;;;;;42.73;28.63;;;;;;;;;;5016408;28;20508;-82
2021/12/30 10:56:23;;;;;;;47.80;30.07;;;;;;;;;;5014274;28;20610;-82
2021/12/30 10:58:50;;;;;;;54.47;32.20;;;;;;;;;;5029028;28;20426;-82
2021/12/30 11:01:20;;;;;;;48.43;30.90;;;;;;;;;;5029698;28;20462;-82
2021/12/30 11:03:59;;;;;;;54.53;33.63;;;;;;;;;;5017502;28;21245;-82
2021/12/30 11:06:26;;;;;;;50.70;32.03;;;;;;;;;;5015152;28;20429;-81
2021/12/30 11:09:06;;;;;;;48.07;31.17;;;;;;;;;;5031268;28;20422;-81
2021/12/30 11:11:32;;;;;;;50.30;31.63;;;;;;;;;;5013447;28;20431;-81
2021/12/30 11:13:58;;;;;;;46.57;30.27;;;;;;;;;;5028719;28;21417;-82
2021/12/30 11:16:24;;;;;;;53.53;32.73;;;;;;;;;;5011145;28;20438;-82
2021/12/30 11:18:50;;;;;;;59.73;35.97;;;;;;;;;;5030295;28;20815;-82
2021/12/30 11:21:35;;;;;;;63.57;38.20;;;;;;;;;;5012867;28;20450;-82
2021/12/30 11:24:02;;;;;;;51.03;32.37;;;;;;;;;;5017135;28;20835;-82
2021/12/30 11:26:28;;;;;;;54.73;34.73;;;;;;;;;;5012699;28;20430;-81
2021/12/30 11:28:55;;;;;;;48.97;30.53;;;;;;;;;;5029198;28;21205;-81
2021/12/30 11:31:21;;;;;;;54.17;33.17;;;;;;;;;;5013118;28;20907;-81
2021/12/30 11:33:47;;;;;;;63.77;36.73;;;;;;;;;;5013826;28;20427;-81
2021/12/30 11:36:14;;;;;;;56.70;36.37;;;;;;;;;;5030958;28;20418;-82
2021/12/30 11:38:40;;;;;;;64.53;38.00;;;;;;;;;;5027655;28;20443;-81
2021/12/30 11:41:06;;;;;;;59.50;35.90;;;;;;;;;;5029680;28;20434;-80
2021/12/30 11:43:42;;;;;;;53.10;33.50;;;;;;;;;;5027799;28;20430;-80
2021/12/30 11:46:28;;;;;;;52.37;32.73;;;;;;;;;;5010397;28;20426;-81
2021/12/30 11:48:55;;;;;;;50.83;32.30;;;;;;;;;;5025210;28;20568;-81
2021/12/30 11:51:23;;;;;;;64.40;37.33;;;;;;;;;;5027143;28;20477;-79
2021/12/30 11:53:50;;;;;;;55.23;35.03;;;;;;;;;;5030050;28;20430;-79
2021/12/30 11:56:24;;;;;;;54.77;34.33;;;;;;;;;;5030056;28;20529;-79
2021/12/30 11:58:50;;;;;;;56.40;34.03;;;;;;;;;;5008986;28;20501;-79
2021/12/30 12:01:17;;;;;;;48.37;31.90;;;;;;;;;;5009556;28;20414;-79
2021/12/30 12:03:45;;;;;;;55.50;34.17;;;;;;;;;;5012201;28;20425;-79
2021/12/30 12:06:31;;;;;;;46.10;30.80;;;;;;;;;;5014107;28;20411;-79
2021/12/30 12:09:08;;;;;;;54.10;33.47;;;;;;;;;;5013287;28;20461;-79
2021/12/30 12:11:43;;;;;;;58.80;34.90;;;;;;;;;;5028018;28;20430;-79
2021/12/30 12:14:16;;;;;;;59.13;35.30;;;;;;;;;;5030122;28;20422;-79
2021/12/30 12:16:50;;;;;;;51.43;33.30;;;;;;;;;;5009539;28;20431;-78
2021/12/30 12:19:18;;;;;;;71.43;38.57;;;;;;;;;;5011099;28;20425;-79
2021/12/30 12:21:46;;;;;;;55.83;34.27;;;;;;;;;;5025230;28;20419;-79
2021/12/30 12:24:21;;;;;;;54.83;33.87;;;;;;;;;;5028919;28;20437;-79
2021/12/30 12:26:47;;;;;;;69.23;39.40;;;;;;;;;;5030356;28;20479;-78
2021/12/30 12:29:28;;;;;;;58.97;36.83;;;;;;;;;;5011965;28;20522;-78
2021/12/30 12:31:55;;;;;;;64.70;36.87;;;;;;;;;;5027625;28;20433;-78
2021/12/30 12:34:41;;;;;;;68.53;38.27;;;;;;;;;;5011783;28;22200;-78
2021/12/30 12:37:27;;;;;;;64.73;36.37;;;;;;;;;;5012798;28;20407;-79
2021/12/30 12:39:57;;;;;;;62.53;36.87;;;;;;;;;;5008623;28;20418;-78
2021/12/30 12:42:52;;;;;;;74.93;39.03;;;;;;;;;;5011890;28;20431;-78
2021/12/30 12:45:22;;;;;;;62.63;35.60;;;;;;;;;;4981832;28;20462;-79
2021/12/30 12:48:08;;;;;;;78.43;39.13;;;;;;;;;;5009107;28;20484;-81
2021/12/30 12:50:38;;;;;;;61.87;35.17;;;;;;;;;;5014734;28;22031;-81
2021/12/30 12:53:18;;;;;;;61.97;34.97;;;;;;;;;;5013935;28;20511;-81
2021/12/30 12:55:44;;;;;;;55.77;33.83;;;;;;;;;;5011473;28;21027;-81
2021/12/30 12:58:13;;;;;;;60.77;35.70;;;;;;;;;;5010682;28;20418;-82
2021/12/30 13:00:40;;;;;;;62.90;36.97;;;;;;;;;;5013818;28;21232;-82
2021/12/30 13:03:06;;;;;;;63.27;37.90;;;;;;;;;;5029189;28;21286;-82
2021/12/30 13:05:35;;;;;;;77.10;41.73;;;;;;;;;;5011989;28;20461;-82
2021/12/30 13:08:01;;;;;;;72.43;40.47;;;;;;;;;;5012977;28;20437;-82
2021/12/30 13:10:30;;;;;;;67.93;38.87;;;;;;;;;;5017412;28;20446;-82
2021/12/30 13:13:00;;;;;;;80.87;43.80;;;;;;;;;;5009772;28;20429;-81
2021/12/30 13:15:26;;;;;;;69.93;40.83;;;;;;;;;;5007523;28;21331;-82
2021/12/30 13:17:52;;;;;;;64.67;37.40;;;;;;;;;;5028995;28;20421;-82
2021/12/30 13:20:25;;;;;;;71.37;38.90;;;;;;;;;;5012495;28;20418;-82
2021/12/30 13:22:56;;;;;;;65.47;38.23;;;;;;;;;;5015411;28;21104;-82
2021/12/30 13:25:22;;;;;;;66.70;37.83;;;;;;;;;;5007257;28;20435;-80
2021/12/30 13:27:49;;;;;;;58.27;35.37;;;;;;;;;;5009364;28;20426;-81
2021/12/30 13:30:17;;;;;;;68.63;36.77;;;;;;;;;;5010566;28;20493;-81
2021/12/30 13:32:52;;;;;;;61.07;36.13;;;;;;;;;;5027727;28;20525;-82
2021/12/30 13:35:18;;;;;;;70.60;37.37;;;;;;;;;;5009099;28;20421;-82
2021/12/30 13:37:44;;;;;;;66.30;37.00;;;;;;;;;;5026125;28;21218;-82
2021/12/30 13:40:13;;;;;;;57.03;35.37;;;;;;;;;;5028891;28;21024;-81
2021/12/30 13:42:45;;;;;;;63.97;35.03;;;;;;;;;;5009864;28;20501;-81
2021/12/30 13:45:11;;;;;;;60.73;35.47;;;;;;;;;;5026045;28;20430;-81
2021/12/30 13:47:38;;;;;;;55.90;33.37;;;;;;;;;;5009927;28;20426;-81
2021/12/30 13:50:10;;;;;;;56.50;31.90;;;;;;;;;;5010997;28;20447;-80
2021/12/30 13:52:37;;;;;;;60.20;34.97;;;;;;;;;;5026585;28;20837;-80
2021/12/30 13:55:09;;;;;;;74.47;39.20;;;;;;;;;;5027674;28;20419;-80
2021/12/30 13:57:35;;;;;;;57.17;33.53;;;;;;;;;;5012856;28;21330;-81
2021/12/30 14:00:01;;;;;;;58.40;34.53;;;;;;;;;;5029994;28;20422;-80
2021/12/30 14:02:28;;;;;;;61.80;36.87;;;;;;;;;;5029554;28;20418;-81
2021/12/30 14:05:03;;;;;;;57.50;34.30;;;;;;;;;;5012951;28;20430;-81
2021/12/30 14:07:37;;;;;;;55.10;33.37;;;;;;;;;;5011448;28;21153;-81
2021/12/30 14:10:04;;;;;;;49.17;31.23;;;;;;;;;;5010662;28;20714;-81
2021/12/30 14:12:32;;;;;;;59.67;35.30;;;;;;;;;;5011914;28;20422;-81
2021/12/30 14:15:18;;;;;;;66.90;37.20;;;;;;;;;;5015928;28;20429;-81
2021/12/30 14:17:45;;;;;;;67.97;36.40;;;;;;;;;;5012458;28;20422;-81
2021/12/30 14:20:12;;;;;;;68.20;37.73;;;;;;;;;;5016182;28;20440;-81
2021/12/30 14:22:46;;;;;;;63.53;36.70;;;;;;;;;;5030717;28;20445;-81
2021/12/30 14:25:25;;;;;;;58.17;34.27;;;;;;;;;;5029801;28;20425;-81
2021/12/30 14:27:51;;;;;;;54.53;33.13;;;;;;;;;;5030663;28;20926;-81
2021/12/30 14:30:17;;;;;;;59.00;34.13;;;;;;;;;;5011651;28;20467;-81
2021/12/30 14:32:43;;;;;;;59.53;35.83;;;;;;;;;;5012806;28;20428;-81
2021/12/30 14:35:09;;;;;;;60.27;35.97;;;;;;;;;;5030029;28;20545;-82
2021/12/30 14:37:39;;;;;;;62.23;36.53;;;;;;;;;;5015683;28;20427;-81
2021/12/30 14:40:06;;;;;;;65.90;37.37;;;;;;;;;;5030492;28;20438;-81
2021/12/30 14:42:33;;;;;;;65.97;36.63;;;;;;;;;;5014812;28;20504;-82
2021/12/30 14:45:05;;;;;;;54.27;33.57;;;;;;;;;;5027311;28;20429;-81
2021/12/30 14:47:33;;;;;;;54.83;34.50;;;;;;;;;;5014903;28;20426;-81